Delta, Louisiana
Current Conditions -  °F | °C
As of 12:35 PM on Saturday 25 Oct 2014 (Local Time) from KVKS Reporting Station
Clear Clear  
Wind Chill: 75°   Ceiling: Unl
Heat Index: 75°   Visibility: 10mi
Dew Point: 57°   Wind: 3mph
Humidity: 53%   Direction: NA
Pressure: 30.15"   Gusts: NA
Location:  32.33°N, 90.93°W
Report Text: KVKS 251735Z AUTO VRB03KT 10SM CLR 24/14 A3015 RMK A01
Loading
Personal Weather Stations






























Interactive Weather Map
Tropical Storm Tracking
New forecast layout! Learn more

10-Day Weather Forecast

Advertisements
Track Severe Weather on mobile